Time;durP1;ratioP1;P1;durP2;ratioP2;P2;SDS_P1;SDS_P2;PMS_P1;PMS_P2;Temp;Humidity;BMP_temperature;BMP_pressure;BME280_temperature;BME280_humidity;BME280_pressure;Samples;Min_cycle;Max_cycle;Signal;HPM_P1;HPM_P2
2021/07/18 06:26:29;;;;;;;0.20;0.20;;;;;;;30.81;34.59;97375.44;5044677;28;20059;-64
2021/07/18 06:28:55;;;;;;;0.43;0.43;;;;;;;30.51;34.57;97370.19;5089683;28;20040;-66
2021/07/18 06:31:21;;;;;;;0.43;0.40;;;;;;;30.29;34.61;97367.28;5094578;28;20032;-66
2021/07/18 06:33:47;;;;;;;0.43;0.43;;;;;;;30.16;34.70;97354.72;5092895;28;20496;-63
2021/07/18 06:36:13;;;;;;;1.02;0.68;;;;;;;29.94;34.56;97357.50;5090398;28;20036;-69
2021/07/18 06:38:39;;;;;;;1.20;0.88;;;;;;;29.73;34.71;97357.38;5097534;28;20046;-66
2021/07/18 06:41:06;;;;;;;1.10;0.50;;;;;;;29.52;34.79;97356.91;5093905;28;20058;-67
2021/07/18 06:43:32;;;;;;;0.35;0.35;;;;;;;29.44;34.51;97346.75;5091337;28;20394;-67
2021/07/18 06:45:58;;;;;;;7.30;0.57;;;;;;;29.36;34.70;97345.13;5092736;28;20123;-64
2021/07/18 06:48:24;;;;;;;0.30;0.30;;;;;;;29.42;34.46;97342.72;5091489;28;20071;-69
2021/07/18 06:50:49;;;;;;;1.63;0.38;;;;;;;29.57;34.14;97335.91;5089033;28;20086;-68
2021/07/18 06:53:15;;;;;;;0.85;0.32;;;;;;;29.82;34.02;97341.69;5099347;28;20043;-67
2021/07/18 06:55:41;;;;;;;0.17;0.17;;;;;;;30.01;33.23;97343.34;5110226;28;20044;-62
2021/07/18 06:58:07;;;;;;;0.50;0.50;;;;;;;30.22;33.05;97328.44;5091952;28;20047;-63
2021/07/18 07:00:33;;;;;;;0.28;0.28;;;;;;;30.35;32.70;97328.84;5092794;28;20048;-62
2021/07/18 07:02:59;;;;;;;0.20;0.20;;;;;;;30.48;32.60;97325.69;5092739;28;20028;-61
2021/07/18 07:05:25;;;;;;;0.10;0.10;;;;;;;30.65;32.22;97324.84;5092692;28;20044;-62
2021/07/18 07:07:51;;;;;;;0.10;0.10;;;;;;;30.84;31.94;97328.47;5092111;28;20391;-61
2021/07/18 07:10:18;;;;;;;0.10;0.10;;;;;;;30.83;32.05;97313.50;5092183;28;20036;-61
2021/07/18 07:12:45;;;;;;;0.20;0.20;;;;;;;30.81;32.06;97320.78;5093338;28;20351;-61
2021/07/18 07:15:12;;;;;;;0.30;0.30;;;;;;;30.56;32.38;97332.94;5092324;28;20040;-61
2021/07/18 07:17:37;;;;;;;0.45;0.20;;;;;;;30.13;33.03;97330.84;5092722;28;20559;-61
2021/07/18 07:20:08;;;;;;;0.10;0.10;;;;;;;29.71;33.55;97324.66;5088241;28;20036;-63
2021/07/18 07:22:35;;;;;;;0.45;0.45;;;;;;;29.56;33.76;97330.66;5092629;28;20116;-63
2021/07/18 07:25:06;;;;;;;0.10;0.10;;;;;;;29.42;33.79;97315.25;5091925;28;20127;-63
2021/07/18 07:27:33;;;;;;;0.00;0.00;;;;;;;29.39;33.88;97323.69;5091190;28;20217;-61
2021/07/18 07:29:58;;;;;;;0.22;0.15;;;;;;;29.39;33.91;97315.22;5092129;28;20138;-61
2021/07/18 07:36:27;;;;;;;0.10;0.10;;;;;;;28.79;34.18;97301.13;5082999;28;20051;-61
2021/07/18 07:39:10;;;;;;;0.90;0.90;;;;;;;28.75;34.38;97293.84;5088240;28;20040;-62
2021/07/18 07:41:36;;;;;;;0.10;0.10;;;;;;;28.68;34.43;97314.41;5091328;28;20052;-63
2021/07/18 07:44:02;;;;;;;0.13;0.13;;;;;;;28.52;34.51;97289.22;5092145;28;20044;-64
2021/07/18 07:46:28;;;;;;;0.38;0.38;;;;;;;28.47;34.46;97287.59;5092058;28;20040;-62
2021/07/18 07:48:54;;;;;;;0.30;0.30;;;;;;;28.34;34.87;97291.88;5091307;28;20050;-63
2021/07/18 07:51:20;;;;;;;0.60;0.17;;;;;;;28.13;35.26;97290.50;5091291;28;20417;-65
2021/07/18 07:53:47;;;;;;;0.20;0.20;;;;;;;27.94;35.16;97285.88;5091611;28;20036;-66
2021/07/18 07:56:12;;;;;;;0.75;0.40;;;;;;;27.74;35.67;97284.47;5090554;28;20542;-62
2021/07/18 07:58:38;;;;;;;0.50;0.38;;;;;;;27.57;35.62;97275.41;5091299;28;20089;-63
2021/07/18 08:01:04;;;;;;;0.35;0.35;;;;;;;27.63;35.65;97275.88;5091614;28;20101;-63
2021/07/18 08:03:30;;;;;;;0.20;0.20;;;;;;;27.72;35.22;97281.19;5091650;28;20132;-64
2021/07/18 08:05:56;;;;;;;0.47;0.20;;;;;;;27.87;35.05;97283.00;5091319;28;20044;-64
2021/07/18 08:08:21;;;;;;;0.50;0.50;;;;;;;27.94;35.08;97283.06;5093224;28;20071;-63
2021/07/18 08:10:47;;;;;;;0.10;0.10;;;;;;;28.05;34.80;97268.28;5090886;28;20490;-64
2021/07/18 08:16:36;;;;;;;0.15;0.10;;;;;;;28.19;34.29;97265.56;5085186;28;20090;-69
2021/07/18 08:19:03;;;;;;;0.10;0.10;;;;;;;28.16;34.14;97282.47;5090767;28;20486;-66
2021/07/18 08:21:28;;;;;;;0.10;0.10;;;;;;;28.12;33.84;97277.63;5090901;28;20063;-66
2021/07/18 08:23:54;;;;;;;0.30;0.30;;;;;;;28.03;34.07;97276.31;5091765;28;20131;-65
2021/07/18 08:27:00;;;;;;;0.20;0.20;;;;;;;27.94;33.94;97268.97;5090830;28;20128;-66
2021/07/18 08:30:05;;;;;;;0.40;0.40;;;;;;;27.82;34.46;97268.41;5086834;28;20040;-66
2021/07/18 08:32:31;;;;;;;0.10;0.10;;;;;;;27.72;34.10;97270.72;5086035;28;20387;-64
2021/07/18 08:34:56;;;;;;;0.10;0.10;;;;;;;27.67;34.14;97271.09;5089047;28;20109;-61
2021/07/18 08:38:02;;;;;;;0.10;0.10;;;;;;;27.66;34.33;97261.00;5088736;28;20047;-63
2021/07/18 08:41:07;;;;;;;0.10;0.10;;;;;;;27.65;34.32;97248.13;5079426;28;20485;-62
2021/07/18 08:43:33;;;;;;;0.20;0.20;;;;;;;27.74;34.13;97254.25;5091728;28;20048;-62
2021/07/18 08:46:39;;;;;;;0.10;0.10;;;;;;;27.91;33.77;97247.13;5089294;28;20050;-63
2021/07/18 08:49:44;;;;;;;0.30;0.30;;;;;;;28.01;33.38;97248.47;5095532;28;20048;-63
2021/07/18 08:52:51;;;;;;;0.30;0.30;;;;;;;28.20;33.51;97243.81;5093955;28;20054;-63
2021/07/18 08:55:56;;;;;;;0.15;0.15;;;;;;;28.48;32.99;97243.22;5095379;28;20039;-64
2021/07/18 08:59:02;;;;;;;0.05;0.05;;;;;;;28.56;32.77;97244.06;5105021;28;20040;-63
2021/07/18 09:02:07;;;;;;;0.20;0.20;;;;;;;28.63;32.55;97236.47;5090950;28;20441;-62
2021/07/18 09:05:12;;;;;;;0.22;0.22;;;;;;;28.70;32.38;97237.75;5089390;28;20040;-64
2021/07/18 09:08:23;;;;;;;0.10;0.10;;;;;;;28.73;32.15;97239.78;5089465;28;20044;-63
2021/07/18 09:11:40;;;;;;;0.10;0.10;;;;;;;28.75;32.58;97232.53;5090369;28;20386;-65
2021/07/18 09:14:55;;;;;;;0.10;0.10;;;;;;;28.84;32.14;97229.34;5090314;28;20051;-63
2021/07/18 09:18:00;;;;;;;0.30;0.30;;;;;;;28.81;32.23;97242.25;5090432;28;20036;-66
2021/07/18 09:24:38;;;;;;;0.17;0.10;;;;;;;28.88;32.08;97238.66;5085507;28;20071;-64
2021/07/18 09:27:26;;;;;;;0.20;0.20;;;;;;;29.10;32.00;97227.47;5089815;28;20510;-64
2021/07/18 09:30:19;;;;;;;0.63;0.40;;;;;;;29.22;31.69;97218.66;5090943;28;20059;-66
2021/07/18 09:40:20;;;;;;;0.10;0.10;;;;;;;29.33;31.65;97221.53;5086458;28;20101;-63
2021/07/18 09:43:12;;;;;;;0.25;0.25;;;;;;;29.27;31.73;97225.94;5084276;28;20048;-67
2021/07/18 09:49:50;;;;;;;0.45;0.45;;;;;;;29.28;31.55;97228.34;5085938;28;20035;-62
2021/07/18 09:52:55;;;;;;;2.63;0.30;;;;;;;29.44;31.50;97213.06;5090234;28;20051;-62
2021/07/18 09:59:44;;;;;;;0.40;0.40;;;;;;;29.79;30.95;97208.69;5084494;28;20125;-63
2021/07/18 10:02:09;;;;;;;0.20;0.20;;;;;;;29.72;31.15;97198.19;5089011;28;20448;-62
2021/07/18 10:05:18;;;;;;;0.28;0.28;;;;;;;29.59;31.34;97203.41;5086114;28;20124;-62
2021/07/18 10:08:23;;;;;;;0.10;0.10;;;;;;;29.49;31.67;97207.84;5088946;28;20135;-62
2021/07/18 10:11:29;;;;;;;0.30;0.30;;;;;;;29.44;31.59;97211.03;5091015;28;20036;-64
2021/07/18 10:13:57;;;;;;;0.28;0.28;;;;;;;29.31;31.79;97210.63;5089611;28;20502;-65
2021/07/18 10:16:25;;;;;;;0.10;0.10;;;;;;;29.19;31.68;97220.22;5097970;28;20050;-66
2021/07/18 10:18:53;;;;;;;0.20;0.20;;;;;;;29.08;32.05;97222.22;5092902;28;20062;-65
2021/07/18 10:21:21;;;;;;;0.63;0.43;;;;;;;29.02;32.20;97226.63;5092950;28;20047;-64
2021/07/18 10:23:52;;;;;;;0.20;0.20;;;;;;;28.98;32.27;97228.63;5090730;28;20105;-68
2021/07/18 10:26:25;;;;;;;0.10;0.10;;;;;;;28.95;32.26;97235.06;5097058;28;20482;-62
2021/07/18 10:28:53;;;;;;;;;;;;;;;28.91;32.25;97242.72;5095652;28;20205;-63
2021/07/18 10:31:34;;;;;;;0.10;0.10;;;;;;;28.83;32.34;97247.50;5091487;28;20459;-63
2021/07/18 10:34:03;;;;;;;0.10;0.10;;;;;;;28.68;32.33;97243.78;5088155;28;20128;-66
2021/07/18 10:36:29;;;;;;;0.20;0.20;;;;;;;28.62;32.41;97260.28;5093346;28;20119;-64
2021/07/18 10:38:56;;;;;;;1.08;0.43;;;;;;;28.54;32.37;97257.78;5093342;28;20163;-61
2021/07/18 10:41:44;;;;;;;0.57;0.57;;;;;;;28.52;32.15;97257.34;5095558;28;20170;-61
2021/07/18 10:44:18;;;;;;;0.10;0.10;;;;;;;28.34;32.58;97260.84;5096219;28;20036;-64
2021/07/18 10:46:46;;;;;;;;;;;;;;;28.05;32.98;97248.53;5093244;28;20063;-62
2021/07/18 10:49:16;;;;;;;0.25;0.25;;;;;;;27.80;33.01;97258.31;5089284;28;19916;-64
2021/07/18 10:51:50;;;;;;;0.10;0.10;;;;;;;27.57;33.42;97249.22;5091754;28;20403;-64
2021/07/18 10:54:19;;;;;;;0.30;0.30;;;;;;;27.39;33.58;97247.00;5094838;28;20133;-63
2021/07/18 10:56:54;;;;;;;0.10;0.10;;;;;;;27.28;34.03;97249.69;5086791;28;20032;-63
2021/07/18 10:59:32;;;;;;;0.32;0.32;;;;;;;27.15;34.10;97253.94;5109929;28;20036;-64
2021/07/18 11:02:52;;;;;;;0.22;0.20;;;;;;;26.98;33.96;97260.16;5093213;28;20040;-64
2021/07/18 11:05:57;;;;;;;0.10;0.10;;;;;;;26.85;34.31;97254.75;5093288;28;20128;-63
2021/07/18 11:09:01;;;;;;;0.10;0.10;;;;;;;26.85;34.39;97259.56;5090524;28;20039;-65
2021/07/18 11:15:15;;;;;;;0.50;0.50;;;;;;;26.83;34.11;97282.47;5085692;28;20038;-62
2021/07/18 11:18:10;;;;;;;0.20;0.15;;;;;;;26.74;34.19;97279.16;5091585;28;20063;-62
2021/07/18 11:20:40;;;;;;;0.10;0.10;;;;;;;26.69;34.46;97287.91;5089804;28;20040;-64
2021/07/18 11:23:08;;;;;;;0.10;0.10;;;;;;;26.80;34.06;97280.44;5093257;28;20699;-64
2021/07/18 11:25:39;;;;;;;0.82;0.60;;;;;;;27.02;34.24;97272.28;5094228;28;20036;-63
2021/07/18 11:28:29;;;;;;;0.10;0.10;;;;;;;27.21;34.05;97274.16;5093528;28;20082;-63
2021/07/18 11:31:10;;;;;;;0.35;0.35;;;;;;;27.58;33.52;97260.13;5093810;28;20042;-64
2021/07/18 11:33:44;;;;;;;0.20;0.20;;;;;;;27.93;33.29;97280.59;5093962;28;20044;-64
2021/07/18 11:36:14;;;;;;;0.30;0.30;;;;;;;28.21;32.82;97274.47;5093746;28;20044;-62
2021/07/18 11:38:40;;;;;;;0.20;0.20;;;;;;;28.39;32.82;97279.44;5093586;28;20048;-63
2021/07/18 11:41:19;;;;;;;0.40;0.40;;;;;;;28.45;32.66;97272.25;5094141;28;20110;-64
2021/07/18 11:43:47;;;;;;;0.10;0.10;;;;;;;28.38;32.80;97275.00;5093672;28;20043;-65
2021/07/18 11:46:13;;;;;;;0.10;0.10;;;;;;;28.26;33.02;97279.72;5093488;28;20437;-64
2021/07/18 11:48:41;;;;;;;0.10;0.10;;;;;;;28.09;33.48;97275.56;5091714;28;20048;-64
2021/07/18 11:51:14;;;;;;;0.40;0.28;;;;;;;27.88;33.74;97283.78;5092711;28;20051;-63
2021/07/18 11:53:47;;;;;;;0.22;0.22;;;;;;;27.71;34.22;97285.22;5093467;28;20040;-63
2021/07/18 11:56:31;;;;;;;0.22;0.22;;;;;;;27.52;34.45;97280.59;5093609;28;20499;-63
2021/07/18 11:59:03;;;;;;;0.40;0.30;;;;;;;27.34;35.00;97281.19;5093731;28;20093;-65
2021/07/18 12:01:32;;;;;;;0.20;0.20;;;;;;;27.33;34.76;97279.56;5093451;28;20043;-65
2021/07/18 12:03:58;;;;;;;0.10;0.10;;;;;;;27.27;34.88;97278.25;5093465;28;20036;-64
2021/07/18 12:06:30;;;;;;;1.20;0.82;;;;;;;27.27;34.72;97273.41;5093162;28;20486;-65
2021/07/18 12:09:09;;;;;;;0.40;0.40;;;;;;;27.34;34.93;97269.09;5093167;28;20113;-63
2021/07/18 12:11:36;;;;;;;0.10;0.10;;;;;;;27.39;34.52;97269.56;5093204;28;20501;-64
2021/07/18 12:14:02;;;;;;;0.20;0.20;;;;;;;27.47;34.76;97264.00;5092991;28;20119;-65
2021/07/18 12:16:28;;;;;;;0.10;0.10;;;;;;;27.52;34.89;97250.38;5093013;28;20127;-63
2021/07/18 12:18:55;;;;;;;0.25;0.25;;;;;;;27.57;34.69;97249.22;5074699;28;20062;-65
2021/07/18 12:21:22;;;;;;;0.22;0.22;;;;;;;27.57;34.98;97258.47;5093448;28;20043;-66
2021/07/18 12:24:13;;;;;;;0.10;0.10;;;;;;;27.65;34.56;97241.66;5093175;28;20036;-62
2021/07/18 12:26:41;;;;;;;0.20;0.13;;;;;;;27.91;34.36;97251.97;5083751;28;20126;-64
2021/07/18 12:29:09;;;;;;;0.30;0.30;;;;;;;28.05;34.44;97242.88;5093072;28;20483;-65
2021/07/18 12:31:36;;;;;;;0.30;0.30;;;;;;;28.09;34.17;97246.53;5092750;28;20055;-64
2021/07/18 12:34:03;;;;;;;0.40;0.40;;;;;;;28.05;34.34;97237.25;5092239;28;20476;-64
2021/07/18 12:36:29;;;;;;;0.10;0.10;;;;;;;27.90;34.90;97245.53;5092582;28;20040;-65
2021/07/18 12:38:54;;;;;;;0.38;0.38;;;;;;;27.79;35.02;97241.78;5092487;28;20123;-63
2021/07/18 12:41:21;;;;;;;0.10;0.10;;;;;;;27.74;35.11;97247.81;5092736;28;20072;-65
2021/07/18 12:43:47;;;;;;;0.20;0.20;;;;;;;27.73;34.92;97238.50;5092553;28;20039;-67
2021/07/18 12:46:19;;;;;;;0.10;0.10;;;;;;;27.81;35.00;97222.47;5092227;28;20355;-64
2021/07/18 12:48:45;;;;;;;0.17;0.17;;;;;;;27.75;35.08;97246.59;5092522;28;20561;-63
2021/07/18 12:51:19;;;;;;;0.10;0.10;;;;;;;27.65;35.17;97230.38;5092307;28;20078;-64
2021/07/18 12:53:54;;;;;;;0.10;0.10;;;;;;;27.60;35.37;97234.34;5092337;28;20070;-65
2021/07/18 12:56:20;;;;;;;0.22;0.22;;;;;;;27.63;35.47;97244.84;5091936;28;20054;-65
2021/07/18 12:58:50;;;;;;;0.20;0.20;;;;;;;27.64;35.57;97252.13;5095805;28;20044;-64
2021/07/18 13:01:18;;;;;;;0.43;0.25;;;;;;;27.39;35.56;97243.41;5100238;28;20064;-66
2021/07/18 13:03:48;;;;;;;0.10;0.10;;;;;;;27.12;36.51;97257.53;5093147;28;20047;-66
2021/07/18 13:06:14;;;;;;;0.65;0.30;;;;;;;26.76;36.81;97271.13;5092124;28;20028;-65
2021/07/18 13:08:46;;;;;;;0.10;0.10;;;;;;;26.42;37.44;97267.38;5090728;28;20444;-64
2021/07/18 13:11:37;;;;;;;0.10;0.10;;;;;;;25.86;38.46;97275.22;5090850;28;20098;-64
2021/07/18 13:14:30;;;;;;;0.00;0.00;;;;;;;25.27;39.38;97289.31;5092544;28;20126;-65
2021/07/18 13:17:08;;;;;;;0.13;0.13;;;;;;;24.75;40.21;97293.38;5091904;28;20059;-65
2021/07/18 13:19:41;;;;;;;1.45;0.20;;;;;;;24.12;41.60;97295.09;5092863;28;20124;-63
2021/07/18 13:22:06;;;;;;;0.10;0.10;;;;;;;23.49;42.81;97315.38;5092459;28;20512;-65
2021/07/18 13:24:35;;;;;;;0.13;0.10;;;;;;;23.19;43.23;97326.91;5092175;28;20036;-64
2021/07/18 13:27:18;;;;;;;0.52;0.52;;;;;;;22.35;45.05;97329.09;5091606;28;20139;-67
2021/07/18 13:29:46;;;;;;;0.25;0.10;;;;;;;21.07;47.55;97329.72;5092191;28;20130;-65
2021/07/18 13:32:15;;;;;;;0.10;0.10;;;;;;;20.28;49.26;97338.50;5092154;28;20072;-65
2021/07/18 13:34:52;;;;;;;0.10;0.10;;;;;;;19.76;50.21;97358.19;5092407;28;20024;-67
2021/07/18 13:37:46;;;;;;;0.43;0.43;;;;;;;19.48;50.94;97372.47;5092389;28;20036;-62
2021/07/18 13:40:34;;;;;;;0.10;0.10;;;;;;;19.38;50.75;97372.78;5092007;28;20122;-66
2021/07/18 13:43:28;;;;;;;0.10;0.10;;;;;;;19.38;50.47;97361.66;5092266;28;20044;-64
2021/07/18 13:45:58;;;;;;;0.40;0.22;;;;;;;19.47;50.08;97356.91;5093143;28;20044;-64
2021/07/18 13:48:28;;;;;;;0.30;0.30;;;;;;;19.55;50.09;97347.72;5095825;28;20040;-64
2021/07/18 13:50:57;;;;;;;0.10;0.10;;;;;;;19.56;50.14;97329.06;5097506;28;20044;-65
2021/07/18 13:53:23;;;;;;;0.30;0.30;;;;;;;19.64;49.94;97322.66;5089532;28;20036;-66
2021/07/18 13:55:49;;;;;;;0.60;0.30;;;;;;;19.79;49.80;97318.56;5093566;28;20498;-78
2021/07/18 13:58:15;;;;;;;0.73;0.73;;;;;;;19.83;49.63;97311.19;5092340;28;20040;-63
2021/07/18 14:00:41;;;;;;;0.10;0.10;;;;;;;19.83;49.95;97296.41;5095907;28;20182;-63
2021/07/18 14:03:10;;;;;;;0.22;0.22;;;;;;;19.73;50.39;97303.16;5092941;28;20414;-62
2021/07/18 14:05:37;;;;;;;0.17;0.17;;;;;;;19.83;50.18;97308.41;5093754;28;20036;-64
2021/07/18 14:08:05;;;;;;;0.20;0.20;;;;;;;20.08;49.85;97315.00;5093046;28;20490;-61
2021/07/18 14:10:31;;;;;;;0.30;0.30;;;;;;;20.37;49.34;97302.25;5093906;28;20040;-63
2021/07/18 14:12:56;;;;;;;0.35;0.35;;;;;;;20.61;49.04;97306.34;5093192;28;20397;-62
2021/07/18 14:15:23;;;;;;;0.40;0.40;;;;;;;20.75;48.91;97306.97;5093783;28;20143;-62
2021/07/18 14:17:50;;;;;;;1.05;0.40;;;;;;;20.79;49.04;97313.50;5092751;28;20044;-62
2021/07/18 14:20:22;;;;;;;0.55;0.20;;;;;;;20.88;49.26;97313.44;5092750;28;20052;-62
2021/07/18 14:22:48;;;;;;;1.77;0.40;;;;;;;20.99;49.23;97316.63;5090939;28;20521;-62
2021/07/18 14:25:16;;;;;;;0.10;0.10;;;;;;;21.01;49.42;97308.75;5092739;28;20552;-64
2021/07/18 14:27:43;;;;;;;1.15;1.05;;;;;;;21.05;49.60;97315.25;5092445;28;20071;-66
2021/07/18 14:30:14;;;;;;;0.22;0.22;;;;;;;21.08;49.72;97314.59;5089520;28;20047;-62
2021/07/18 14:32:41;;;;;;;0.30;0.30;;;;;;;21.13;49.97;97319.16;5090921;28;20134;-63
2021/07/18 14:35:07;;;;;;;0.20;0.20;;;;;;;21.12;50.18;97323.91;5090538;28;20042;-66
2021/07/18 14:37:34;;;;;;;0.47;0.20;;;;;;;21.04;50.63;97326.75;5091979;28;20044;-63
2021/07/18 14:40:01;;;;;;;0.10;0.10;;;;;;;21.05;50.94;97326.44;5092154;28;20036;-61
2021/07/18 14:42:27;;;;;;;0.35;0.35;;;;;;;21.11;51.02;97344.63;5092724;28;20050;-64
2021/07/18 14:44:53;;;;;;;0.10;0.10;;;;;;;21.10;51.14;97344.97;5092717;28;20132;-67
2021/07/18 14:47:20;;;;;;;1.00;0.35;;;;;;;21.00;51.76;97346.19;5092156;28;20059;-67
2021/07/18 14:49:46;;;;;;;0.30;0.30;;;;;;;20.89;51.91;97356.09;5089311;28;20567;-63
2021/07/18 14:52:12;;;;;;;0.75;0.75;;;;;;;20.77;52.28;97362.41;5092976;28;20032;-64
2021/07/18 14:54:37;;;;;;;0.15;0.15;;;;;;;20.69;52.91;97357.72;5093501;28;20061;-63
2021/07/18 14:57:03;;;;;;;0.10;0.10;;;;;;;20.63;53.18;97360.66;5091665;28;20040;-62
2021/07/18 14:59:29;;;;;;;1.30;0.25;;;;;;;20.64;53.13;97364.25;5096424;28;20065;-65
2021/07/18 15:01:55;;;;;;;0.65;0.65;;;;;;;20.62;53.29;97372.94;5110878;28;20501;-66
2021/07/18 15:04:20;;;;;;;1.75;0.65;;;;;;;20.63;53.36;97371.81;5093413;28;20066;-64
2021/07/18 15:06:46;;;;;;;0.57;0.35;;;;;;;20.71;53.38;97366.56;5093004;28;20039;-67
2021/07/18 15:09:12;;;;;;;0.63;0.15;;;;;;;20.77;53.51;97371.59;5092550;28;20040;-66
2021/07/18 15:11:38;;;;;;;0.30;0.30;;;;;;;20.77;53.60;97367.97;5089219;28;20131;-64
2021/07/18 15:14:04;;;;;;;0.68;0.43;;;;;;;20.73;53.95;97379.00;5092603;28;20046;-63
2021/07/18 15:16:30;;;;;;;0.10;0.10;;;;;;;20.66;54.21;97378.72;5092273;28;20801;-67
2021/07/18 15:18:59;;;;;;;0.20;0.20;;;;;;;20.58;54.59;97376.75;5092637;28;20032;-68
2021/07/18 15:21:27;;;;;;;0.30;0.30;;;;;;;20.46;54.79;97371.88;5092885;28;20044;-67
2021/07/18 15:23:53;;;;;;;0.20;0.20;;;;;;;20.36;55.13;97375.03;5089659;28;20046;-63
2021/07/18 15:26:19;;;;;;;0.10;0.10;;;;;;;20.26;55.50;97374.28;5091804;28;20070;-66
2021/07/18 15:28:46;;;;;;;3.30;0.75;;;;;;;20.13;55.76;97358.59;5092854;28;20534;-65
2021/07/18 15:31:12;;;;;;;0.17;0.17;;;;;;;20.08;56.13;97369.91;5092450;28;20048;-66
2021/07/18 15:33:37;;;;;;;0.47;0.40;;;;;;;20.00;56.37;97376.34;5092425;28;20040;-64
2021/07/18 15:36:04;;;;;;;0.17;0.17;;;;;;;19.93;56.64;97377.66;5092295;28;20075;-67
2021/07/18 15:38:30;;;;;;;0.10;0.10;;;;;;;19.89;56.66;97376.69;5092507;28;20040;-64
2021/07/18 15:40:57;;;;;;;0.40;0.40;;;;;;;19.89;56.58;97364.72;5092588;28;20110;-64
2021/07/18 15:43:23;;;;;;;0.38;0.38;;;;;;;19.84;56.92;97367.69;5092262;28;20123;-66
2021/07/18 15:45:52;;;;;;;0.10;0.10;;;;;;;19.74;57.15;97372.44;5090897;28;20391;-66
2021/07/18 15:48:57;;;;;;;0.65;0.55;;;;;;;19.62;57.36;97377.84;5089382;28;20052;-67
2021/07/18 15:52:02;;;;;;;0.30;0.30;;;;;;;19.47;57.84;97381.16;5091065;28;20067;-66
2021/07/18 15:55:08;;;;;;;0.10;0.10;;;;;;;19.35;58.02;97379.03;5091012;28;20045;-65
2021/07/18 15:58:13;;;;;;;1.75;0.38;;;;;;;19.31;58.06;97378.03;5069082;28;20039;-65
2021/07/18 16:01:19;;;;;;;0.25;0.25;;;;;;;19.28;58.32;97378.69;5088188;28;20077;-67
2021/07/18 16:04:24;;;;;;;0.43;0.43;;;;;;;19.26;58.11;97379.03;5088742;28;20117;-67
2021/07/18 16:07:30;;;;;;;0.25;0.25;;;;;;;19.21;58.33;97381.94;5104024;28;20062;-66
2021/07/18 16:10:35;;;;;;;2.72;0.35;;;;;;;19.20;58.33;97385.91;5088725;28;20050;-66
2021/07/18 16:13:41;;;;;;;0.30;0.30;;;;;;;19.13;58.51;97400.28;5091743;28;20086;-67
2021/07/18 16:16:46;;;;;;;0.17;0.17;;;;;;;19.07;58.56;97388.47;5087765;28;20036;-71
2021/07/18 16:33:17;;;;;;;;;;;;;;;18.78;58.94;97383.50;5071244;28;20039;-62
2021/07/18 16:36:23;;;;;;;0.45;0.20;;;;;;;18.73;58.87;97387.25;5067029;28;19920;-62
2021/07/18 16:46:15;;;;;;;0.17;0.17;;;;;;;18.44;59.72;97389.78;5068977;28;20090;-62
2021/07/18 16:49:20;;;;;;;1.30;0.52;;;;;;;18.33;59.99;97383.69;5070384;28;20051;-63
2021/07/18 16:52:26;;;;;;;2.10;0.63;;;;;;;18.25;60.21;97381.69;5069489;28;20518;-63
2021/07/18 16:55:32;;;;;;;0.40;0.40;;;;;;;18.18;60.38;97388.53;5070429;28;20490;-65
2021/07/18 16:58:37;;;;;;;0.17;0.17;;;;;;;18.12;60.39;97389.78;5070005;28;20406;-66
2021/07/18 17:01:43;;;;;;;0.35;0.15;;;;;;;18.06;60.69;97379.16;5077352;28;20040;-66
2021/07/18 17:04:49;;;;;;;0.22;0.22;;;;;;;18.00;60.70;97389.59;5070480;28;20044;-67
2021/07/18 17:14:47;;;;;;;0.20;0.20;;;;;;;17.79;61.01;97387.31;5064473;28;20047;-66
2021/07/18 17:17:52;;;;;;;0.20;0.20;;;;;;;17.77;61.38;97392.38;5070925;28;20036;-67
2021/07/18 17:20:57;;;;;;;0.35;0.35;;;;;;;17.77;61.33;97389.59;5074699;28;20046;-65
2021/07/18 17:24:03;;;;;;;1.00;0.73;;;;;;;17.78;61.26;97390.41;5072044;28;20540;-67
2021/07/18 17:27:08;;;;;;;1.02;0.93;;;;;;;17.77;61.35;97389.59;5071291;28;20072;-66
2021/07/18 17:30:14;;;;;;;0.20;0.20;;;;;;;17.78;61.32;97390.41;5070962;28;20502;-66
2021/07/18 17:33:19;;;;;;;0.50;0.50;;;;;;;17.77;61.25;97391.53;5052053;28;20036;-64
2021/07/18 17:36:25;;;;;;;1.13;1.02;;;;;;;17.77;61.48;97386.81;5070563;28;20499;-62
2021/07/18 17:53:01;;;;;;;0.30;0.30;;;;;;;17.82;61.39;97388.63;5075494;28;20086;-66
2021/07/18 18:02:53;;;;;;;0.45;0.45;;;;;;;17.82;61.40;97386.66;5071539;28;20035;-65
2021/07/18 18:05:58;;;;;;;0.20;0.20;;;;;;;17.82;61.45;97383.09;5062374;28;20040;-69
2021/07/18 18:09:04;;;;;;;0.45;0.45;;;;;;;17.80;61.59;97386.19;5078220;28;20452;-63
2021/07/18 18:12:09;;;;;;;2.92;0.47;;;;;;;17.78;61.82;97380.09;5063044;28;20051;-63
2021/07/18 18:15:16;;;;;;;0.20;0.20;;;;;;;17.80;61.61;97386.19;5072482;28;20040;-63
